createdAt,value
2019-04-30T00:01:55.774Z,98.80
2019-04-30T00:04:21.308Z,99.00
2019-04-30T00:06:49.740Z,98.90
2019-04-30T00:09:20.045Z,98.80
2019-04-30T00:11:50.643Z,98.80
2019-04-30T00:14:18.721Z,99.00
2019-04-30T00:16:47.136Z,99.10
2019-04-30T00:19:19.454Z,99.40
2019-04-30T00:21:50.276Z,99.40
2019-04-30T00:24:16.100Z,99.50
2019-04-30T00:26:51.835Z,99.60
2019-04-30T00:29:19.262Z,99.50
2019-04-30T00:31:47.089Z,99.40
2019-04-30T00:34:15.268Z,99.60
2019-04-30T00:36:45.922Z,99.50
2019-04-30T00:39:16.198Z,99.60
2019-04-30T00:41:47.346Z,99.40
2019-04-30T00:44:15.134Z,99.50
2019-04-30T00:46:45.778Z,99.40
2019-04-30T00:49:18.375Z,99.50
2019-04-30T00:51:45.391Z,99.50
2019-04-30T00:54:15.245Z,99.60
2019-04-30T00:56:45.573Z,99.60
2019-04-30T00:59:15.128Z,99.60
2019-04-30T01:01:56.225Z,99.60
2019-04-30T01:04:28.139Z,99.70
2019-04-30T01:07:00.270Z,99.60
2019-04-30T01:09:26.504Z,99.60
2019-04-30T01:11:55.353Z,99.90
2019-04-30T01:14:28.329Z,99.90
2019-04-30T01:16:54.275Z,99.70
2019-04-30T01:19:30.172Z,99.80
2019-04-30T01:21:53.365Z,99.90
2019-04-30T01:24:23.509Z,99.90
2019-04-30T01:26:52.665Z,99.90
2019-04-30T01:29:21.479Z,99.90
2019-04-30T01:31:50.124Z,99.90
2019-04-30T01:34:19.632Z,99.90
2019-04-30T01:36:52.085Z,99.90
2019-04-30T01:39:19.531Z,99.90
2019-04-30T01:41:48.782Z,99.90
2019-04-30T01:44:19.366Z,99.90
2019-04-30T01:46:51.479Z,99.90
2019-04-30T01:49:19.984Z,99.90
2019-04-30T01:51:52.664Z,99.90
2019-04-30T01:54:24.028Z,99.90
2019-04-30T01:57:10.719Z,99.90
2019-04-30T01:59:56.061Z,99.90
2019-04-30T02:02:26.139Z,99.90
2019-04-30T02:04:54.569Z,99.90
2019-04-30T02:07:23.009Z,99.90
2019-04-30T02:09:51.505Z,99.90
2019-04-30T02:12:21.842Z,99.90
2019-04-30T02:14:51.857Z,99.90
2019-04-30T02:17:20.384Z,99.90
2019-04-30T02:19:56.560Z,99.90
2019-04-30T02:22:18.999Z,99.90
2019-04-30T02:24:48.675Z,99.90
2019-04-30T02:27:19.468Z,99.90
2019-04-30T02:29:49.414Z,99.90
2019-04-30T02:32:20.545Z,99.90
2019-04-30T02:34:52.460Z,99.90
2019-04-30T02:37:22.525Z,99.90
2019-04-30T02:39:50.953Z,99.90
2019-04-30T02:42:20.426Z,99.90
2019-04-30T02:44:50.480Z,99.90
2019-04-30T02:47:21.389Z,99.90
2019-04-30T02:49:53.390Z,99.90
2019-04-30T02:52:24.261Z,99.90
2019-04-30T02:54:56.127Z,99.90
2019-04-30T02:57:24.553Z,99.90
2019-04-30T03:00:06.757Z,99.90
2019-04-30T03:02:35.336Z,99.90
2019-04-30T03:05:05.321Z,99.90
2019-04-30T03:07:33.764Z,99.90
2019-04-30T03:10:02.254Z,99.90
2019-04-30T03:12:33.732Z,99.90
2019-04-30T03:15:00.907Z,99.90
2019-04-30T03:17:43.425Z,99.90
2019-04-30T03:20:27.976Z,99.90
2019-04-30T03:22:43.996Z,99.90
2019-04-30T03:25:12.497Z,99.90
2019-04-30T03:27:42.583Z,99.90
2019-04-30T03:30:12.216Z,99.90
2019-04-30T03:32:43.124Z,99.90
2019-04-30T03:35:12.801Z,99.90
2019-04-30T03:37:41.308Z,99.90
2019-04-30T03:40:10.278Z,99.90
2019-04-30T03:42:39.957Z,99.90
2019-04-30T03:45:10.142Z,99.90
2019-04-30T03:47:42.860Z,99.90
2019-04-30T03:50:09.367Z,99.90
2019-04-30T03:52:39.424Z,99.90
2019-04-30T03:55:09.257Z,99.90
2019-04-30T03:57:39.871Z,99.90
2019-04-30T04:00:09.575Z,99.90
2019-04-30T04:02:40.462Z,99.90
2019-04-30T04:05:14.134Z,99.90
2019-04-30T04:07:59.975Z,99.90
2019-04-30T04:10:41.897Z,99.90
2019-04-30T04:13:10.517Z,99.90
2019-04-30T04:15:39.981Z,99.90
2019-04-30T04:18:10.724Z,99.90
2019-04-30T04:20:39.941Z,99.90
2019-04-30T04:23:09.716Z,99.90
2019-04-30T04:25:39.973Z,99.90
2019-04-30T04:28:10.118Z,99.90
2019-04-30T04:30:39.272Z,99.90
2019-04-30T04:33:10.225Z,99.90
2019-04-30T04:35:39.359Z,99.90
2019-04-30T04:38:12.289Z,99.90
2019-04-30T04:40:40.083Z,99.90
2019-04-30T04:43:10.354Z,99.90
2019-04-30T04:45:40.509Z,99.90
2019-04-30T04:48:09.727Z,99.90
2019-04-30T04:50:40.058Z,99.90
2019-04-30T04:53:11.302Z,99.90
2019-04-30T04:55:40.000Z,99.90
2019-04-30T04:58:09.676Z,99.90
2019-04-30T05:00:39.247Z,99.90
2019-04-30T05:03:09.567Z,99.80
2019-04-30T05:05:39.834Z,99.70
2019-04-30T05:08:08.574Z,99.70
2019-04-30T05:10:39.125Z,99.70
2019-04-30T05:13:09.091Z,99.80
2019-04-30T05:15:39.036Z,99.50
2019-04-30T05:18:09.182Z,99.30
2019-04-30T05:20:41.240Z,99.60
2019-04-30T05:23:09.461Z,99.50
2019-04-30T05:25:38.987Z,99.20
2019-04-30T05:28:08.684Z,99.50
2019-04-30T05:30:39.208Z,99.50
2019-04-30T05:33:08.870Z,99.70
2019-04-30T05:35:38.854Z,99.50
2019-04-30T05:38:09.316Z,99.30
2019-04-30T05:40:39.801Z,99.50
2019-04-30T05:43:08.725Z,99.30
2019-04-30T05:45:39.056Z,99.20
2019-04-30T05:48:08.855Z,99.20
2019-04-30T05:50:39.149Z,99.10
2019-04-30T05:53:09.008Z,98.80
2019-04-30T05:55:39.402Z,98.50
2019-04-30T05:58:09.398Z,98.10
2019-04-30T06:00:40.051Z,97.50
2019-04-30T06:03:09.445Z,97.40
2019-04-30T06:05:39.380Z,97.10
2019-04-30T06:08:09.320Z,97.30
2019-04-30T06:10:40.499Z,96.70
2019-04-30T06:13:10.681Z,96.40
2019-04-30T06:15:53.412Z,96.00
2019-04-30T06:18:22.108Z,96.40
2019-04-30T06:20:50.787Z,96.60
2019-04-30T06:23:19.561Z,96.70
2019-04-30T06:25:57.265Z,96.70
2019-04-30T06:28:21.922Z,96.10
2019-04-30T06:30:50.857Z,95.60
2019-04-30T06:33:19.698Z,95.10
2019-04-30T06:35:49.311Z,94.30
2019-04-30T06:38:18.566Z,93.30
2019-04-30T06:40:48.904Z,93.00
2019-04-30T06:43:19.130Z,93.10
2019-04-30T06:45:50.965Z,92.90
2019-04-30T06:48:19.888Z,92.90
2019-04-30T06:50:49.258Z,93.40
2019-04-30T06:53:19.264Z,91.60
2019-04-30T06:55:49.238Z,90.00
2019-04-30T06:58:20.478Z,90.00
2019-04-30T07:00:49.686Z,81.40
2019-04-30T07:03:19.157Z,79.00
2019-04-30T07:05:48.833Z,76.50
2019-04-30T07:08:37.370Z,81.00
2019-04-30T07:11:16.213Z,75.90
2019-04-30T07:13:46.702Z,74.20
2019-04-30T07:16:15.278Z,79.80
2019-04-30T07:18:43.825Z,79.10
2019-04-30T07:21:12.414Z,82.30
2019-04-30T07:23:41.140Z,83.60
2019-04-30T07:26:13.776Z,88.20
2019-04-30T07:28:46.142Z,88.60
2019-04-30T07:31:14.291Z,87.20
2019-04-30T07:33:40.695Z,84.70
2019-04-30T07:36:09.763Z,83.40
2019-04-30T07:38:45.764Z,77.20
2019-04-30T07:41:09.694Z,79.60
2019-04-30T07:46:09.569Z,86.70
2019-04-30T07:48:40.331Z,89.20
2019-04-30T07:51:10.443Z,88.80
2019-04-30T07:53:40.468Z,86.70
2019-04-30T07:56:24.127Z,87.50
2019-04-30T07:58:39.506Z,88.50
2019-04-30T08:01:10.285Z,88.30
2019-04-30T08:03:42.784Z,90.00
2019-04-30T08:06:11.805Z,90.20
2019-04-30T08:08:41.128Z,91.10
2019-04-30T08:09:35.037Z,82.40
2019-04-30T08:11:22.786Z,88.80
2019-04-30T08:13:41.209Z,90.20
2019-04-30T08:16:10.118Z,90.20
2019-04-30T08:18:39.260Z,87.90
2019-04-30T08:21:09.424Z,89.10
2019-04-30T08:23:39.786Z,88.40
2019-04-30T08:26:08.903Z,85.70
2019-04-30T08:28:38.626Z,85.00
2019-04-30T08:31:08.961Z,79.40
2019-04-30T08:33:37.689Z,74.10
2019-04-30T08:36:06.264Z,72.40
2019-04-30T08:38:34.865Z,71.90
2019-04-30T08:41:03.453Z,66.70
2019-04-30T08:43:31.923Z,63.40
2019-04-30T08:46:00.435Z,51.50
2019-04-30T08:48:43.776Z,57.70
2019-04-30T08:50:59.639Z,50.40
2019-04-30T08:53:32.838Z,42.20
2019-04-30T08:55:59.120Z,41.20
2019-04-30T08:58:29.177Z,36.70
2019-04-30T09:00:58.755Z,44.80
2019-04-30T09:03:29.518Z,39.10
2019-04-30T09:05:59.399Z,41.00
2019-04-30T09:08:29.439Z,30.60
2019-04-30T09:10:59.526Z,28.00
2019-04-30T09:13:28.749Z,27.60
2019-04-30T09:15:59.334Z,34.00
2019-04-30T09:18:29.177Z,34.70
2019-04-30T09:21:04.181Z,44.40
2019-04-30T09:23:42.798Z,34.90
2019-04-30T09:25:58.650Z,37.10
2019-04-30T09:28:29.334Z,38.50
2019-04-30T09:30:58.672Z,43.20
2019-04-30T09:33:29.276Z,41.60
2019-04-30T09:35:59.447Z,40.10
2019-04-30T09:38:29.023Z,37.30
2019-04-30T09:40:59.398Z,29.70
2019-04-30T09:43:28.644Z,43.30
2019-04-30T09:45:59.137Z,38.40
2019-04-30T09:48:30.363Z,37.90
2019-04-30T09:51:00.256Z,25.10
2019-04-30T09:53:29.772Z,19.60
2019-04-30T09:55:59.611Z,23.90
2019-04-30T09:58:29.952Z,1.40
2019-04-30T10:00:59.373Z,16.20
2019-04-30T10:03:30.296Z,10.20
2019-04-30T10:05:59.041Z,10.70
2019-04-30T10:08:30.332Z,9.80
2019-04-30T10:11:02.857Z,5.60
2019-04-30T10:13:31.332Z,1.00
2019-04-30T10:16:13.470Z,1.00
2019-04-30T10:18:41.951Z,1.00
2019-04-30T10:21:10.501Z,1.00
2019-04-30T10:23:39.245Z,1.00
2019-04-30T10:26:07.804Z,1.00
2019-04-30T10:28:39.347Z,1.00
2019-04-30T10:31:07.768Z,1.00
2019-04-30T10:33:36.232Z,1.00
2019-04-30T10:36:04.696Z,1.00
2019-04-30T10:38:33.276Z,1.00
2019-04-30T10:41:01.762Z,1.00
2019-04-30T10:43:31.985Z,1.00
2019-04-30T10:46:00.766Z,99.90
2019-04-30T10:48:29.192Z,1.00
2019-04-30T10:50:59.257Z,1.00
2019-04-30T10:53:27.848Z,1.00
2019-04-30T10:55:56.296Z,99.90
2019-04-30T10:58:24.807Z,1.00
2019-04-30T11:00:53.367Z,45.50
2019-04-30T11:03:23.078Z,1.00
2019-04-30T11:05:51.789Z,99.90
2019-04-30T11:08:20.391Z,99.90
2019-04-30T11:10:48.946Z,99.90
2019-04-30T11:13:17.376Z,1.00
2019-04-30T11:15:46.045Z,99.90
2019-04-30T11:18:14.730Z,99.90
2019-04-30T11:20:43.877Z,99.90
2019-04-30T11:23:14.685Z,99.90
2019-04-30T11:25:43.633Z,99.90
2019-04-30T11:28:13.190Z,99.90
2019-04-30T11:30:42.170Z,60.20
2019-04-30T11:33:11.005Z,99.90
2019-04-30T11:35:39.792Z,1.00
2019-04-30T11:38:08.341Z,1.00
2019-04-30T11:40:39.828Z,1.00
2019-04-30T11:43:07.494Z,1.00
2019-04-30T11:45:51.106Z,1.00
2019-04-30T11:48:19.784Z,1.00
2019-04-30T11:50:49.710Z,1.00
2019-04-30T11:53:25.317Z,1.00
2019-04-30T11:55:49.272Z,1.00
2019-04-30T11:58:21.848Z,1.00
2019-04-30T12:00:49.451Z,1.00
2019-04-30T12:03:19.152Z,1.00
2019-04-30T12:05:49.033Z,1.00
2019-04-30T12:08:19.558Z,1.00
2019-04-30T12:10:55.957Z,1.00
2019-04-30T12:13:26.222Z,1.00
2019-04-30T12:15:55.547Z,1.00
2019-04-30T12:18:24.450Z,1.00
2019-04-30T12:20:52.988Z,1.00
2019-04-30T12:23:21.637Z,1.00
2019-04-30T12:25:50.352Z,1.00
2019-04-30T12:28:19.544Z,1.00
2019-04-30T12:30:48.978Z,1.00
2019-04-30T12:33:19.169Z,1.00
2019-04-30T12:35:50.886Z,1.00
2019-04-30T12:38:19.137Z,1.00
2019-04-30T12:40:47.993Z,1.00
2019-04-30T12:43:16.668Z,1.00
2019-04-30T12:45:45.295Z,1.00
2019-04-30T12:48:15.520Z,1.00
2019-04-30T12:51:02.171Z,1.00
2019-04-30T12:53:44.285Z,1.00
2019-04-30T12:56:26.719Z,1.00
2019-04-30T12:58:50.661Z,1.00
2019-04-30T13:01:20.643Z,1.00
2019-04-30T13:03:56.705Z,1.00
2019-04-30T13:06:19.876Z,1.00
2019-04-30T13:08:51.764Z,1.00
2019-04-30T13:11:21.113Z,1.00
2019-04-30T13:13:50.530Z,1.00
2019-04-30T13:16:19.434Z,1.00
2019-04-30T13:18:49.409Z,1.00
2019-04-30T13:21:18.461Z,1.00
2019-04-30T13:23:47.103Z,1.00
2019-04-30T13:26:15.532Z,1.00
2019-04-30T13:28:45.716Z,1.00
2019-04-30T13:31:14.163Z,1.00
2019-04-30T13:33:44.797Z,1.00
2019-04-30T13:36:13.724Z,1.00
2019-04-30T13:38:52.509Z,1.00
2019-04-30T13:41:25.417Z,1.00
2019-04-30T13:43:55.565Z,1.00
2019-04-30T13:46:24.739Z,1.00
2019-04-30T13:48:53.243Z,1.00
2019-04-30T13:51:21.669Z,1.00
2019-04-30T13:53:50.093Z,1.00
2019-04-30T13:56:20.207Z,1.00
2019-04-30T13:58:49.018Z,1.00
2019-04-30T14:01:18.891Z,1.00
2019-04-30T14:03:52.189Z,1.00
2019-04-30T14:06:28.963Z,1.00
2019-04-30T14:09:05.050Z,1.00
2019-04-30T14:11:33.949Z,1.00
2019-04-30T14:14:02.561Z,1.00
2019-04-30T14:16:31.247Z,1.00
2019-04-30T14:18:59.857Z,1.00
2019-04-30T14:21:34.638Z,1.00
2019-04-30T14:23:59.501Z,1.00
2019-04-30T14:26:29.226Z,1.00
2019-04-30T14:28:58.863Z,1.00
2019-04-30T14:31:28.833Z,1.00
2019-04-30T14:33:59.229Z,1.00
2019-04-30T14:36:29.180Z,1.00
2019-04-30T14:39:12.968Z,1.00
2019-04-30T14:41:31.794Z,1.00
2019-04-30T14:44:03.386Z,1.00
2019-04-30T14:46:50.604Z,1.00
2019-04-30T14:49:22.134Z,1.00
2019-04-30T14:51:51.389Z,1.00
2019-04-30T14:54:21.756Z,1.00
2019-04-30T14:56:54.585Z,1.00
2019-04-30T14:59:41.021Z,1.00
2019-04-30T15:02:13.858Z,1.00
2019-04-30T15:04:42.418Z,1.00
2019-04-30T15:07:10.861Z,1.00
2019-04-30T15:09:39.285Z,1.00
2019-04-30T15:12:09.586Z,1.00
2019-04-30T15:14:38.792Z,1.00
2019-04-30T15:17:08.165Z,1.00
2019-04-30T15:19:36.597Z,1.00
2019-04-30T15:22:05.069Z,1.00
2019-04-30T15:24:39.246Z,1.00
2019-04-30T15:27:09.309Z,1.00
2019-04-30T15:29:39.190Z,1.00
2019-04-30T15:32:08.662Z,1.00
2019-04-30T15:34:39.031Z,1.00
2019-04-30T15:37:18.716Z,1.00
2019-04-30T15:39:39.711Z,1.00
2019-04-30T15:42:08.736Z,1.00
2019-04-30T15:44:42.684Z,1.00
2019-04-30T15:47:09.190Z,1.00
2019-04-30T15:49:38.007Z,1.00
2019-04-30T15:52:10.603Z,1.00
2019-04-30T15:54:39.120Z,1.00
2019-04-30T15:57:08.914Z,1.00
2019-04-30T15:59:39.531Z,1.00
2019-04-30T16:02:09.869Z,1.00
2019-04-30T16:04:59.853Z,1.00
2019-04-30T16:07:29.536Z,1.00
2019-04-30T16:10:08.893Z,1.00
2019-04-30T16:12:44.584Z,1.00
2019-04-30T16:15:13.336Z,1.00
2019-04-30T16:17:43.444Z,1.00
2019-04-30T16:20:12.204Z,1.00
2019-04-30T16:22:40.645Z,1.00
2019-04-30T16:25:09.475Z,1.00
2019-04-30T16:27:37.992Z,1.00
2019-04-30T16:30:09.543Z,1.00
2019-04-30T16:32:38.104Z,1.00
2019-04-30T16:35:08.938Z,1.00
2019-04-30T16:37:38.762Z,1.00
2019-04-30T16:40:08.338Z,1.00
2019-04-30T16:42:38.961Z,1.00
2019-04-30T16:45:09.322Z,1.00
2019-04-30T16:47:37.895Z,1.00
2019-04-30T16:50:09.045Z,1.00
2019-04-30T16:52:39.321Z,1.00
2019-04-30T16:55:08.059Z,1.00
2019-04-30T16:57:36.524Z,1.00
2019-04-30T17:00:09.235Z,1.00
2019-04-30T17:02:39.317Z,1.00
2019-04-30T17:05:11.253Z,1.00
2019-04-30T17:07:53.674Z,1.00
2019-04-30T17:10:23.765Z,1.00
2019-04-30T17:13:02.536Z,1.00
2019-04-30T17:15:32.681Z,1.00
2019-04-30T17:18:01.101Z,1.00
2019-04-30T17:20:29.612Z,1.00
2019-04-30T17:22:59.502Z,1.00
2019-04-30T17:25:28.169Z,1.00
2019-04-30T17:27:58.894Z,1.00
2019-04-30T17:30:26.950Z,1.00
2019-04-30T17:32:55.452Z,1.00
2019-04-30T17:35:23.882Z,1.00
2019-04-30T17:37:52.324Z,1.00
2019-04-30T17:40:22.462Z,1.00
2019-04-30T17:42:50.890Z,1.00
2019-04-30T17:45:20.674Z,1.00
2019-04-30T17:47:49.172Z,1.00
2019-04-30T17:50:18.794Z,1.00
2019-04-30T17:52:47.361Z,1.00
2019-04-30T17:55:16.040Z,1.00
2019-04-30T17:57:44.465Z,1.00
2019-04-30T18:00:19.369Z,1.00
2019-04-30T18:02:44.863Z,1.00
2019-04-30T18:05:13.284Z,1.00
2019-04-30T18:07:41.849Z,1.00
2019-04-30T18:10:12.617Z,1.00
2019-04-30T18:12:41.040Z,1.00
2019-04-30T18:15:14.032Z,1.00
2019-04-30T18:17:44.105Z,1.00
2019-04-30T18:20:19.043Z,1.00
2019-04-30T18:22:49.358Z,1.00
2019-04-30T18:25:19.440Z,1.00
2019-04-30T18:27:49.631Z,1.00
2019-04-30T18:30:21.200Z,1.00
2019-04-30T18:32:49.860Z,1.00
2019-04-30T18:35:20.072Z,1.00
2019-04-30T18:37:48.627Z,99.90
2019-04-30T18:40:18.679Z,99.90
2019-04-30T18:42:49.481Z,1.00
2019-04-30T18:45:19.457Z,1.00
2019-04-30T18:47:48.057Z,1.00
2019-04-30T18:50:16.901Z,1.00
2019-04-30T18:52:45.385Z,99.90
2019-04-30T18:55:14.066Z,99.90
2019-04-30T18:57:42.499Z,99.90
2019-04-30T19:00:11.652Z,99.90
2019-04-30T19:02:40.551Z,99.90
2019-04-30T19:05:10.948Z,99.90
2019-04-30T19:07:48.828Z,99.90
2019-04-30T19:10:36.529Z,99.90
2019-04-30T19:13:23.136Z,99.90
2019-04-30T19:16:18.567Z,1.00
2019-04-30T19:18:40.075Z,1.00
2019-04-30T19:21:09.856Z,1.00
2019-04-30T19:23:39.903Z,1.00
2019-04-30T19:26:08.727Z,1.00
2019-04-30T19:28:38.711Z,1.00
2019-04-30T19:31:11.383Z,1.00
2019-04-30T19:33:38.928Z,1.00
2019-04-30T19:36:09.653Z,1.00
2019-04-30T19:38:37.729Z,1.00
2019-04-30T19:41:06.201Z,1.00
2019-04-30T19:43:34.656Z,1.00
2019-04-30T19:46:03.097Z,1.00
2019-04-30T19:48:31.521Z,1.00
2019-04-30T19:50:59.968Z,1.00
2019-04-30T19:53:30.255Z,1.00
2019-04-30T19:55:58.556Z,1.00
2019-04-30T19:58:46.333Z,1.00
2019-04-30T20:00:59.311Z,1.00
2019-04-30T20:03:29.179Z,1.00
2019-04-30T20:05:58.602Z,1.00
2019-04-30T20:08:28.695Z,1.00
2019-04-30T20:10:59.160Z,1.00
2019-04-30T20:13:36.665Z,1.00
2019-04-30T20:16:00.644Z,1.00
2019-04-30T20:18:29.323Z,1.00
2019-04-30T20:21:01.178Z,1.00
2019-04-30T20:23:32.632Z,1.00
2019-04-30T20:26:01.234Z,1.00
2019-04-30T20:28:39.052Z,19.90
2019-04-30T20:31:03.101Z,23.50
2019-04-30T20:33:31.628Z,25.90
2019-04-30T20:36:00.129Z,27.40
2019-04-30T20:38:35.884Z,30.60
2019-04-30T20:41:06.106Z,43.30
2019-04-30T20:43:34.669Z,47.70
2019-04-30T20:46:03.101Z,54.50
2019-04-30T20:48:31.600Z,56.40
2019-04-30T20:51:01.397Z,53.60
2019-04-30T20:53:30.167Z,48.80
2019-04-30T20:55:59.330Z,45.00
2019-04-30T20:58:28.020Z,49.90
2019-04-30T21:01:03.405Z,53.00
2019-04-30T21:03:26.705Z,56.20
2019-04-30T21:05:55.164Z,59.00
2019-04-30T21:08:23.637Z,58.00
2019-04-30T21:10:55.033Z,54.10
2019-04-30T21:13:23.492Z,48.90
2019-04-30T21:15:54.832Z,52.20
2019-04-30T21:18:22.117Z,52.10
2019-04-30T21:20:50.621Z,64.20
2019-04-30T21:23:19.559Z,66.20
2019-04-30T21:25:48.819Z,64.40
2019-04-30T21:28:19.514Z,64.40
2019-04-30T21:30:47.607Z,60.90
2019-04-30T21:33:19.327Z,60.70
2019-04-30T21:35:50.711Z,58.80
2019-04-30T21:38:19.603Z,53.30
2019-04-30T21:40:49.194Z,53.90
2019-04-30T21:43:17.946Z,53.20
2019-04-30T21:45:46.412Z,52.40
2019-04-30T21:48:14.857Z,52.10
2019-04-30T21:50:43.377Z,51.90
2019-04-30T21:53:11.884Z,54.50
2019-04-30T21:55:40.682Z,55.30
2019-04-30T21:58:09.664Z,57.70
2019-04-30T22:00:43.084Z,58.70
2019-04-30T22:03:11.568Z,60.30
2019-04-30T22:05:40.078Z,61.70
2019-04-30T22:08:09.202Z,59.30
2019-04-30T22:10:37.874Z,61.10
2019-04-30T22:13:08.754Z,58.60
2019-04-30T22:15:36.684Z,57.20
2019-04-30T22:18:05.160Z,57.70
2019-04-30T22:20:33.589Z,54.10
2019-04-30T22:23:02.112Z,55.80
2019-04-30T22:25:30.533Z,54.50
2019-04-30T22:27:59.042Z,63.40
2019-04-30T22:30:27.468Z,62.80
2019-04-30T22:32:55.916Z,62.60
2019-04-30T22:35:25.999Z,66.70
2019-04-30T22:38:05.145Z,67.10
2019-04-30T22:40:33.566Z,65.30
2019-04-30T22:43:02.008Z,65.50
2019-04-30T22:45:38.311Z,66.70
2019-04-30T22:48:08.869Z,66.80
2019-04-30T22:50:37.472Z,68.50
2019-04-30T22:53:05.916Z,67.30
2019-04-30T22:55:34.349Z,65.90
2019-04-30T22:58:02.791Z,76.60
2019-04-30T23:00:35.540Z,77.80
2019-04-30T23:03:06.093Z,78.40
2019-04-30T23:05:34.551Z,77.90
2019-04-30T23:08:03.090Z,76.70
2019-04-30T23:10:31.518Z,74.60
2019-04-30T23:12:59.946Z,75.10
2019-04-30T23:15:28.484Z,71.90
2019-04-30T23:17:57.048Z,71.80
2019-04-30T23:20:25.473Z,69.80
2019-04-30T23:22:53.916Z,70.70
2019-04-30T23:25:22.420Z,66.30
2019-04-30T23:27:50.920Z,67.20
2019-04-30T23:30:19.425Z,68.20
2019-04-30T23:32:47.857Z,66.90
2019-04-30T23:35:16.300Z,65.60
2019-04-30T23:37:44.725Z,64.00
2019-04-30T23:40:30.552Z,63.60
2019-04-30T23:42:58.979Z,72.20
2019-04-30T23:45:27.482Z,70.60
2019-04-30T23:47:56.051Z,68.40
2019-04-30T23:50:24.481Z,67.90
2019-04-30T23:52:53.054Z,68.80
2019-04-30T23:55:21.485Z,70.00
2019-04-30T23:57:49.916Z,73.30
